Weather observations for the past three days for
General Wm J Fox Airfield
Metric (Imperial)
Date Time (pdt) Wind (kph) Vis. (km) Weather Sky Cond. Temperature (ºC) Relative Humidity Wind Chill (°C) Heat Index (°C) Pressure Precipitation (cm)
Air Dwpt 6 hour altimeter (cm) sea level (mb) 1 hr 3 hr 6 hr
Max. Min.
09 12:56 Calm 16.09 Fair CLR 32.2 0 13% 30 75.97 1010.6
09 11:56 Vrbl 11 16.09 Fair CLR 31.1 0.6 14% 29 76.02 1011.4
09 10:56 Calm 16.09 Fair CLR 28.9 -1.1 29.4 15.6 14% 27 76.05 1012.0
09 09:56 Calm 16.09 Fair CLR 27.2 -2.2 14% 26 76.07 1012.3
09 08:56 W 11 16.09 Fair CLR 25.6 -1.1 17% 25 76.07 1012.5
09 07:56 W 13 16.09 Fair CLR 23.3 1.1 23% 76.1 1012.7
09 06:56 W 17 16.09 Fair CLR 18.9 2.8 34% 76.1 1012.9
09 05:56 W 13 16.09 Fair CLR 16.1 2.8 41% 76.07 1012.6
09 04:56 W 13 16.09 Fair CLR 17.2 3.9 21.7 17.2 41% 76.05 1012.1
09 03:56 W 22 16.09 Fair CLR 18.3 5 42% 76.05 1011.8
09 02:56 W 19 16.09 Fair CLR 18.9 2.8 34% 76.05 1011.8
09 01:56 W 24 16.09 Fair CLR 20 1.1 28% 76.05 1011.9
09 00:56 W 26 16.09 Fair CLR 20.6 2.2 30% 76.07 1012.0
08 23:56 W 28 16.09 Fair CLR 21.1 3.3 31% 76.07 1012.2
08 22:56 W 24 16.09 Fair CLR 21.7 5 30.6 21.7 34% 76.1 1012.5
08 21:56 W 26 16.09 Fair CLR 21.7 5 34% 76.1 1012.7
08 20:56 W 24 16.09 Fair CLR 22.8 5 32% 76.05 1012.2
08 19:56 W 31 16.09 Fair CLR 24.4 3.9 26% 25 76.02 1011.6
08 18:56 W 41 16.09 Fair and Breezy CLR 26.7 3.3 22% 26 75.97 1011.2
08 17:56 W 41 G 52 16.09 Fair and Breezy CLR 29.4 2.2 17% 28 75.95 1010.8
08 16:56 W 43 16.09 Fair and Windy CLR 30.6 4.4 33.3 28.3 19% 29 75.97 1011.0
08 15:56 W 41 G 50 16.09 Fair and Breezy CLR 31.7 5 19% 30 76 1011.0
08 14:56 W 39 G 52 16.09 Light Rain and Breezy CLR 32.2 5.6 19% 30 76.02 1011.5
08 13:56 W 33 G 48 16.09 Fair and Breezy CLR 32.2 3.9 17% 30 76.07 1012.0
08 12:56 W 17 16.09 Fair CLR 31.7 4.4 18% 30 76.1 1012.5
08 11:56 W 20 G 33 16.09 Fair CLR 31.1 5.6 20% 29 76.12 1012.9
08 10:56 W 13 16.09 Fair CLR 29.4 6.7 29.4 18.9 24% 28 76.17 1013.7
08 09:56 Calm 16.09 Fair CLR 26.7 6.7 28% 26 76.2 1014.3
08 08:56 W 20 16.09 Fair CLR 25 9.4 37% 26 76.23 1014.4
08 07:56 W 28 16.09 Fair CLR 23.3 10 43% 76.23 1014.5
08 06:56 W 22 16.09 Fair CLR 20 10 53% 76.2 1014.1
08 05:56 W 26 16.09 Fair CLR 18.9 10 56% 76.15 1013.6
08 04:56 W 30 16.09 Fair CLR 19.4 10 21.7 19.4 55% 76.12 1013.0
08 03:56 W 24 16.09 Fair CLR 20 10 53% 76.12 1013.0
08 02:56 W 28 16.09 Fair CLR 20 9.4 51% 76.15 1013.0
08 01:56 W 24 16.09 Fair CLR 21.1 8.9 46% 76.15 1013.3
08 00:56 W 24 16.09 Fair CLR 21.1 8.3 44% 76.2 1013.9
07 23:56 W 22 16.09 Fair CLR 21.7 7.8 41% 76.17 1013.7
07 22:56 W 26 16.09 Fair CLR 21.7 8.3 31.7 21.7 42% 76.17 1013.9
07 21:56 W 28 16.09 Fair CLR 22.2 9.4 44% 76.2 1014.1
07 20:56 W 33 16.09 Fair and Breezy CLR 22.2 10 46% 76.15 1013.9
07 19:56 W 39 G 56 16.09 Fair and Breezy CLR 23.3 9.4 41% 76.1 1013.3
07 18:56 W 41 16.09 Fair and Breezy CLR 26.7 8.3 31% 26 76.07 1013.0
07 17:56 W 39 G 52 16.09 Fair and Breezy CLR 30 4.4 20% 28 76.05 1012.5
07 16:56 W 37 G 59 16.09 Fair and Breezy CLR 32.2 4.4 33.9 27.2 17% 30 76.02 1012.2
07 15:56 W 43 16.09 Fair and Windy CLR 32.8 1.1 13% 30 76.02 1011.9
07 14:56 W 22 G 52 16.09 Fair CLR 33.3 3.9 16% 31 76.05 1012.3
07 13:56 Calm 16.09 Fair CLR 31.7 -2.8 11% 30 76.1 1012.9
07 12:56 Calm 16.09 Fair CLR 31.7 0.6 14% 30 76.17 1013.8
07 11:56 E 7 16.09 Fair CLR 30 1.7 16% 28 76.25 1014.8
07 10:56 Calm 16.09 Fair CLR 27.2 2.2 27.2 8.3 20% 26 76.3 1015.5
07 09:56 Calm 16.09 Fair CLR 24.4 4.4 27% 25 76.33 1016.1
07 08:56 SE 6 16.09 Fair CLR 20.6 5 36% 76.35 1016.6
07 07:56 Calm 16.09 Fair CLR 17.8 6.1 46% 76.35 1016.9
07 06:56 Calm 16.09 Fair CLR 12.2 4.4 59% 76.33 1016.6
07 05:56 Calm 16.09 Fair CLR 10.6 3.9 64% 76.3 1016.3
07 04:56 Vrbl 6 16.09 Fair CLR 10.6 3.3 19.4 10.6 61% 76.3 1016.2
07 03:56 NE 7 16.09 Fair CLR 11.7 4.4 61% 76.3 1016.1
07 02:56 E 7 16.09 Fair CLR 12.8 4.4 57% 76.3 1016.0
07 01:56 Calm 16.09 Fair CLR 16.7 4.4 44% 76.33 1016.1
07 00:56 Calm 16.09 Fair CLR 17.2 5.6 47% 76.33 1016.2
06 23:56 SW 7 16.09 Fair CLR 18.9 5.6 42% 76.3 1015.9
06 22:56 W 19 16.09 Fair CLR 18.9 5 28.9 18.9 40% 76.3 1016.0
06 21:56 W 19 16.09 Fair CLR 19.4 5 39% 76.28 1015.9
06 20:56 W 28 16.09 Fair CLR 20.6 5.6 38% 76.25 1015.4
06 19:56 W 30 16.09 Fair CLR 22.2 6.1 35% 76.2 1014.8
06 18:56 W 26 16.09 Fair CLR 25 7.8 33% 25 76.15 1014.3
06 17:56 SW 22 16.09 Fair CLR 27.8 7.2 27% 27 76.15 1014.2
06 16:56 NE 15 16.09 Fair CLR 28.9 1.1 29.4 21.1 17% 27 76.12 1013.9
06 15:56 Vrbl 11 16.09 Fair CLR 27.8 1.1 18% 27 76.15 1014.2
06 14:56 E 19 16.09 Fair CLR 28.3 1.7 18% 27 76.23 1015.0
06 13:56 SE 11 16.09 Fair CLR 26.7 2.8 21% 26 76.25 1015.4
Date Time (pdt) Wind (kph) Vis. (km) Weather Sky Cond. Air Dwpt Max. Min. Relative Humidity Wind Chill (°C) Heat Index (°C) altimeter (cm) sea level (mb) 1 hr 3 hr 6 hr
6 hour
Temperature (ºC) Pressure Precipitation (cm)